Time;durP1;ratioP1;P1;durP2;ratioP2;P2;SDS_P1;SDS_P2;PMS_P1;PMS_P2;Temp;Humidity;BMP_temperature;BMP_pressure;BME280_temperature;BME280_humidity;BME280_pressure;Samples;Min_cycle;Max_cycle;Signal;HPM_P1;HPM_P2
2020/12/24 00:01:06;;;;;;;9.05;6.07;;;26.90;87.30;;;;;;6202769;23;20009;-92
2020/12/24 00:03:32;;;;;;;5.38;4.30;;;26.90;87.30;;;;;;6204996;23;20073;-92
2020/12/24 00:06:01;;;;;;;9.43;5.93;;;26.80;87.30;;;;;;6230749;23;20007;-93
2020/12/24 00:08:28;;;;;;;6.80;4.68;;;26.80;87.30;;;;;;6229415;23;20000;-92
2020/12/24 00:10:57;;;;;;;8.20;4.85;;;26.80;87.90;;;;;;6226332;23;19997;-93
2020/12/24 00:13:25;;;;;;;7.88;5.05;;;26.80;87.70;;;;;;6175272;23;20043;-92
2020/12/24 00:15:52;;;;;;;7.10;4.13;;;26.80;88.10;;;;;;6199154;23;20016;-89
2020/12/24 00:18:19;;;;;;;5.97;4.47;;;26.80;87.30;;;;;;6224597;23;20236;-90
2020/12/24 00:20:47;;;;;;;7.75;4.50;;;26.80;87.90;;;;;;6200572;23;20239;-91
2020/12/24 00:23:14;;;;;;;6.43;3.88;;;26.70;88.10;;;;;;6226306;23;20016;-91
2020/12/24 00:25:42;;;;;;;8.00;4.15;;;26.60;88.30;;;;;;6224922;23;20000;-93
2020/12/24 00:28:09;;;;;;;11.35;6.47;;;26.60;88.40;;;;;;6200887;23;20027;-93
2020/12/24 00:30:41;;;;;;;9.27;5.10;;;26.60;89.00;;;;;;6202654;23;20008;-91
2020/12/24 00:33:16;;;;;;;12.50;4.97;;;26.50;88.90;;;;;;6202848;23;20291;-92
2020/12/24 00:35:44;;;;;;;8.10;4.85;;;26.50;89.20;;;;;;6179109;23;20066;-92
2020/12/24 00:38:11;;;;;;;7.72;5.57;;;26.50;89.30;;;;;;6229124;23;20000;-91
2020/12/24 00:40:37;;;;;;;7.75;4.90;;;26.50;89.60;;;;;;6199931;23;20343;-89
2020/12/24 00:43:05;;;;;;;7.72;4.63;;;26.50;89.60;;;;;;6200171;23;20183;-91
2020/12/24 00:45:39;;;;;;;6.82;3.90;;;26.40;89.70;;;;;;6200982;23;20000;-92
2020/12/24 00:48:08;;;;;;;4.68;2.97;;;26.40;89.80;;;;;;6204389;23;20007;-92
2020/12/24 00:50:35;;;;;;;7.30;3.97;;;26.30;89.90;;;;;;6193801;23;20000;-92
2020/12/24 00:53:04;;;;;;;4.53;3.13;;;26.30;89.90;;;;;;6201626;23;19993;-93
2020/12/24 00:55:38;;;;;;;5.70;3.40;;;26.30;89.90;;;;;;6205465;23;20056;-91
2020/12/24 00:58:04;;;;;;;6.72;3.10;;;26.20;89.80;;;;;;6202123;23;19993;-92
2020/12/24 01:00:35;;;;;;;4.53;3.20;;;26.20;89.70;;;;;;6202447;23;20357;-91
2020/12/24 01:03:02;;;;;;;5.15;3.80;;;26.20;89.70;;;;;;6200657;23;20001;-89
2020/12/24 01:05:31;;;;;;;6.60;3.70;;;26.20;89.90;;;;;;6227389;23;20051;-89
2020/12/24 01:07:59;;;;;;;6.18;4.32;;;26.20;89.80;;;;;;6201366;23;20189;-89
2020/12/24 01:10:30;;;;;;;8.55;6.63;;;26.20;89.60;;;;;;6200777;23;20277;-94
2020/12/24 01:13:23;;;;;;;14.98;9.40;;;26.10;90.30;;;;;;6202254;23;19992;-93
2020/12/24 01:15:52;;;;;;;14.52;10.55;;;26.10;89.90;;;;;;6201101;23;20059;-88
2020/12/24 01:18:20;;;;;;;12.20;9.80;;;26.10;90.10;;;;;;6226614;23;20285;-90
2020/12/24 01:20:48;;;;;;;11.25;8.40;;;26.00;90.10;;;;;;6226955;23;20055;-88
2020/12/24 01:23:21;;;;;;;9.70;7.63;;;26.00;89.70;;;;;;6223961;23;19997;-87
2020/12/24 01:25:49;;;;;;;9.48;7.18;;;26.10;89.80;;;;;;6174484;23;20012;-89
2020/12/24 01:28:17;;;;;;;11.60;6.90;;;26.00;89.70;;;;;;6175142;23;19997;-87
2020/12/24 01:30:47;;;;;;;9.02;5.68;;;26.00;89.30;;;;;;6228728;23;20003;-91
2020/12/24 01:33:15;;;;;;;9.27;5.47;;;26.00;89.90;;;;;;6176786;23;19997;-92
2020/12/24 01:36:00;;;;;;;6.45;4.20;;;26.00;89.50;;;;;;6177627;23;20063;-92
2020/12/24 01:38:31;;;;;;;5.88;3.90;;;26.00;89.50;;;;;;6200345;23;20370;-92
2020/12/24 01:41:13;;;;;;;7.15;4.28;;;25.90;89.60;;;;;;6200820;23;20067;-91
2020/12/24 01:43:39;;;;;;;6.03;4.50;;;25.90;89.60;;;;;;6176875;23;20008;-89
2020/12/24 01:46:06;;;;;;;9.07;5.88;;;25.80;89.50;;;;;;6227641;23;20239;-91
2020/12/24 01:48:33;;;;;;;8.00;5.70;;;25.90;88.80;;;;;;6228118;23;20071;-89
2020/12/24 01:50:59;;;;;;;17.50;9.45;;;25.80;89.20;;;;;;6202095;23;20008;-91
2020/12/24 01:53:29;;;;;;;11.85;7.18;;;25.80;89.70;;;;;;6200837;23;19992;-92
2020/12/24 01:55:57;;;;;;;10.52;6.72;;;25.80;89.40;;;;;;6204085;23;20038;-91
2020/12/24 01:58:23;;;;;;;8.63;5.63;;;25.80;89.00;;;;;;6202468;23;19992;-92
2020/12/24 02:00:50;;;;;;;9.60;4.97;;;25.80;88.80;;;;;;6233260;23;20023;-92
2020/12/24 02:03:18;;;;;;;6.22;5.07;;;25.80;89.00;;;;;;6206872;23;20251;-92
2020/12/24 02:05:44;;;;;;;5.28;3.80;;;25.70;88.80;;;;;;6229491;23;20044;-90
2020/12/24 02:08:11;;;;;;;9.73;5.95;;;25.70;89.10;;;;;;6202181;23;20020;-90
2020/12/24 02:10:38;;;;;;;10.35;6.50;;;25.70;88.60;;;;;;6202648;23;20224;-89
2020/12/24 02:13:05;;;;;;;8.07;6.38;;;25.60;88.80;;;;;;6200305;23;20004;-90
2020/12/24 02:15:34;;;;;;;6.90;5.20;;;25.60;88.90;;;;;;6227080;23;19997;-91
2020/12/24 02:18:02;;;;;;;9.40;5.20;;;25.60;88.90;;;;;;6176199;23;20023;-89
2020/12/24 02:20:30;;;;;;;5.97;4.30;;;25.60;88.70;;;;;;6200581;23;20201;-89
2020/12/24 02:22:56;;;;;;;6.63;4.63;;;25.60;88.60;;;;;;6226964;23;20014;-89
2020/12/24 02:25:23;;;;;;;7.32;4.47;;;25.60;88.60;;;;;;6199605;23;20315;-90
2020/12/24 02:27:51;;;;;;;8.43;5.10;;;25.60;88.50;;;;;;6199823;23;19997;-90
2020/12/24 02:30:24;;;;;;;6.97;5.28;;;25.60;88.60;;;;;;6165316;23;20017;-90
2020/12/24 02:33:02;;;;;;;8.45;6.22;;;25.50;88.80;;;;;;6142040;23;20104;-88
2020/12/24 02:35:28;;;;;;;11.40;7.93;;;25.50;89.20;;;;;;6164497;23;20002;-90
2020/12/24 02:37:55;;;;;;;12.50;7.85;;;25.50;88.30;;;;;;6164841;23;20005;-91
2020/12/24 02:40:22;;;;;;;14.80;8.48;;;25.50;88.20;;;;;;6163863;23;20294;-90
2020/12/24 02:42:48;;;;;;;13.32;8.57;;;25.50;88.60;;;;;;6165164;23;20016;-89
2020/12/24 02:45:15;;;;;;;10.52;7.72;;;25.50;88.50;;;;;;6162984;23;20012;-87
2020/12/24 02:47:45;;;;;;;12.07;9.13;;;25.40;88.40;;;;;;6139495;23;20005;-88
2020/12/24 02:50:14;;;;;;;9.25;6.15;;;25.40;88.50;;;;;;6162887;23;20009;-89
2020/12/24 02:52:40;;;;;;;8.98;6.80;;;25.40;88.70;;;;;;6163111;23;19994;-90
2020/12/24 02:55:07;;;;;;;10.32;8.07;;;25.40;88.90;;;;;;6139404;23;20360;-87
2020/12/24 02:57:34;;;;;;;11.15;8.10;;;25.30;88.90;;;;;;6163104;23;20013;-89
2020/12/24 03:00:11;;;;;;;10.45;5.68;;;25.30;88.50;;;;;;6139720;23;20006;-88
2020/12/24 03:02:38;;;;;;;9.10;5.75;;;25.30;89.10;;;;;;6164555;23;20001;-89
2020/12/24 03:05:09;;;;;;;6.50;4.93;;;25.30;88.70;;;;;;6164266;23;20001;-89
2020/12/24 03:07:36;;;;;;;6.32;3.88;;;25.20;88.30;;;;;;6138944;23;20084;-88
2020/12/24 03:10:03;;;;;;;6.93;4.22;;;25.20;89.00;;;;;;6163359;23;20221;-91
2020/12/24 03:12:31;;;;;;;7.47;5.00;;;25.20;88.30;;;;;;6164432;23;20060;-91
2020/12/24 03:14:59;;;;;;;7.10;5.13;;;25.20;88.80;;;;;;6140299;23;20006;-89
2020/12/24 03:17:25;;;;;;;8.60;5.65;;;25.20;89.20;;;;;;6163805;23;19989;-91
2020/12/24 03:19:52;;;;;;;9.38;5.72;;;25.20;88.10;;;;;;6152631;23;20026;-90
2020/12/24 03:22:19;;;;;;;8.15;6.20;;;25.20;87.80;;;;;;6199252;23;20291;-90
2020/12/24 03:24:45;;;;;;;8.68;5.90;;;25.10;88.40;;;;;;6199600;23;19997;-90
2020/12/24 03:27:12;;;;;;;9.27;6.38;;;25.10;88.50;;;;;;6199958;23;19996;-90
2020/12/24 03:29:38;;;;;;;6.13;4.18;;;25.10;88.20;;;;;;6198515;23;20059;-90
2020/12/24 03:32:05;;;;;;;6.38;4.15;;;25.10;88.00;;;;;;6198393;23;20000;-90
2020/12/24 03:34:32;;;;;;;4.43;3.25;;;25.00;87.90;;;;;;6199569;23;20016;-90
2020/12/24 03:36:58;;;;;;;6.88;3.30;;;25.00;88.20;;;;;;6199691;23;20000;-90
2020/12/24 03:39:25;;;;;;;4.68;3.22;;;24.90;88.30;;;;;;6163989;23;19994;-88
2020/12/24 03:41:51;;;;;;;5.82;3.70;;;24.90;88.20;;;;;;6163630;23;20002;-90
2020/12/24 03:44:18;;;;;;;4.93;3.13;;;24.90;88.80;;;;;;6162994;23;19997;-91
2020/12/24 03:46:45;;;;;;;7.45;4.60;;;24.90;88.60;;;;;;6164164;23;20175;-90
2020/12/24 03:49:15;;;;;;;7.80;4.78;;;24.90;88.60;;;;;;6162146;23;20104;-91
2020/12/24 03:51:41;;;;;;;8.10;4.45;;;24.90;88.90;;;;;;6138921;23;20001;-90
2020/12/24 03:54:08;;;;;;;5.15;3.20;;;24.90;88.90;;;;;;6162625;23;19994;-89
2020/12/24 03:56:34;;;;;;;5.05;3.38;;;24.80;88.40;;;;;;6162975;23;20090;-90
2020/12/24 03:59:01;;;;;;;4.28;3.08;;;24.80;88.70;;;;;;6162805;23;20052;-90
2020/12/24 04:01:28;;;;;;;4.43;2.75;;;24.80;88.80;;;;;;6138741;23;20064;-90
2020/12/24 04:03:54;;;;;;;3.15;2.50;;;24.70;88.60;;;;;;6139380;23;20005;-91
2020/12/24 04:06:21;;;;;;;7.63;4.32;;;24.70;88.70;;;;;;6138872;23;20025;-89
2020/12/24 04:08:48;;;;;;;4.88;3.38;;;24.80;88.70;;;;;;6138641;23;20010;-89
2020/12/24 04:11:15;;;;;;;5.60;3.50;;;24.80;88.30;;;;;;6163394;23;19998;-89
2020/12/24 04:13:41;;;;;;;4.22;2.67;;;24.80;88.40;;;;;;6163749;23;20005;-89
2020/12/24 04:16:08;;;;;;;3.90;3.20;;;24.70;88.00;;;;;;6177995;23;20016;-91
2020/12/24 04:18:34;;;;;;;5.22;3.05;;;24.70;88.20;;;;;;6195197;23;20005;-90
2020/12/24 04:21:01;;;;;;;4.60;3.72;;;24.70;88.20;;;;;;6196384;23;20070;-88
2020/12/24 04:23:28;;;;;;;5.03;4.00;;;24.60;87.80;;;;;;6197679;23;20016;-90
2020/12/24 04:25:54;;;;;;;7.78;4.03;;;24.60;87.80;;;;;;6195832;23;20055;-91
2020/12/24 04:28:21;;;;;;;4.82;4.07;;;24.60;87.60;;;;;;6198468;23;20274;-92
2020/12/24 04:31:16;;;;;;;;;;;;;;;;;;;;;
2020/12/24 04:33:43;;;;;;;5.90;3.90;;;24.70;87.40;;;;;;6197630;23;19993;-90
2020/12/24 04:36:31;;;;;;;8.27;5.50;;;24.70;87.50;;;;;;6197132;23;20001;-91
2020/12/24 04:38:57;;;;;;;4.07;3.47;;;24.60;88.10;;;;;;6198096;23;19986;-89
2020/12/24 04:41:28;;;;;;;4.10;3.17;;;24.60;88.20;;;;;;6194562;23;20005;-89
2020/12/24 04:43:55;;;;;;;4.03;2.97;;;24.50;88.20;;;;;;6196153;23;20004;-91
2020/12/24 04:46:28;;;;;;;4.78;3.90;;;24.50;88.10;;;;;;6198401;23;20253;-91
2020/12/24 04:48:58;;;;;;;4.18;3.45;;;24.50;87.70;;;;;;6195048;23;19997;-91
2020/12/24 04:51:26;;;;;;;4.93;2.95;;;24.50;87.70;;;;;;6196113;23;20028;-91
2020/12/24 04:53:59;;;;;;;3.00;2.55;;;24.50;87.40;;;;;;6194918;23;20000;-90
2020/12/24 04:56:27;;;;;;;4.22;2.90;;;24.50;87.40;;;;;;6197117;23;19997;-89
2020/12/24 04:58:57;;;;;;;4.25;3.03;;;24.50;86.90;;;;;;6196859;23;19993;-92
2020/12/24 05:01:30;;;;;;;4.07;2.83;;;24.50;87.30;;;;;;6196993;23;20005;-93
2020/12/24 05:03:57;;;;;;;4.07;2.60;;;24.50;86.80;;;;;;6197613;23;19993;-92
2020/12/24 05:06:24;;;;;;;4.25;2.42;;;24.50;86.40;;;;;;6171434;23;20021;-91
2020/12/24 05:08:52;;;;;;;6.05;3.90;;;24.50;86.90;;;;;;6194337;23;20024;-90
2020/12/24 05:11:33;;;;;;;6.43;2.15;;;24.50;86.60;;;;;;6195918;23;20076;-90
2020/12/24 05:14:20;;;;;;;2.88;1.83;;;24.50;86.90;;;;;;6195552;23;20020;-90
2020/12/24 05:17:16;;;;;;;3.53;2.08;;;24.50;86.90;;;;;;6195935;23;20000;-92
2020/12/24 05:19:49;;;;;;;3.90;2.17;;;24.40;87.10;;;;;;6178242;23;20017;-93
2020/12/24 05:22:20;;;;;;;4.88;3.35;;;24.40;86.90;;;;;;6196309;23;20031;-92
2020/12/24 05:24:47;;;;;;;4.93;3.60;;;24.40;87.10;;;;;;6195420;23;20005;-92
2020/12/24 05:27:22;;;;;;;4.43;3.00;;;24.40;87.00;;;;;;6195265;23;20217;-91
2020/12/24 05:29:51;;;;;;;2.75;2.10;;;24.40;87.10;;;;;;6195496;23;20005;-91
2020/12/24 05:32:29;;;;;;;3.67;1.85;;;24.40;87.40;;;;;;6197231;23;20035;-91
2020/12/24 05:35:09;;;;;;;3.92;2.63;;;24.40;87.60;;;;;;6197717;23;20214;-91
2020/12/24 05:37:36;;;;;;;4.07;2.65;;;24.40;87.10;;;;;;6197054;23;20008;-92
2020/12/24 05:40:26;;;;;;;5.75;3.97;;;24.40;87.00;;;;;;6196805;23;20005;-90
2020/12/24 05:42:58;;;;;;;3.75;2.97;;;24.30;87.50;;;;;;6197720;23;19989;-93
2020/12/24 05:45:30;;;;;;;2.92;2.08;;;24.30;87.30;;;;;;6195531;23;20005;-91
2020/12/24 05:48:14;;;;;;;3.28;2.47;;;24.30;87.30;;;;;;6195591;23;20001;-90
2020/12/24 05:50:42;;;;;;;4.97;2.40;;;24.30;87.40;;;;;;6195928;23;20008;-90
2020/12/24 05:53:13;;;;;;;4.65;2.42;;;24.30;88.10;;;;;;6197202;23;20057;-91
2020/12/24 05:55:42;;;;;;;3.78;2.47;;;24.30;88.30;;;;;;6197610;23;20025;-91
2020/12/24 05:58:09;;;;;;;4.28;2.60;;;24.30;88.20;;;;;;6195260;23;20001;-90
2020/12/24 06:00:41;;;;;;;4.10;2.67;;;24.20;88.00;;;;;;6197213;23;20299;-89
2020/12/24 06:03:13;;;;;;;5.80;4.25;;;24.30;88.50;;;;;;6195242;23;19997;-89
2020/12/24 06:06:00;;;;;;;;;;;24.30;88.80;;;;;;6197426;23;20004;-89
2020/12/24 06:08:29;;;;;;;10.93;7.43;;;24.30;88.30;;;;;;6196585;23;19939;-90
2020/12/24 06:11:09;;;;;;;8.65;6.82;;;24.30;88.90;;;;;;6195185;23;20047;-89
2020/12/24 06:13:42;;;;;;;11.02;6.38;;;24.20;88.90;;;;;;6196745;23;20296;-90
2020/12/24 06:16:12;;;;;;;9.07;7.13;;;24.20;89.20;;;;;;6195185;23;19997;-90
2020/12/24 06:18:43;;;;;;;11.07;7.10;;;24.20;89.60;;;;;;6195207;23;20189;-90
2020/12/24 06:21:18;;;;;;;6.45;4.88;;;24.10;89.80;;;;;;6195134;23;20005;-91
2020/12/24 06:24:03;;;;;;;9.07;4.88;;;24.10;89.50;;;;;;6195211;23;19997;-91
2020/12/24 06:26:36;;;;;;;4.15;2.67;;;24.10;89.40;;;;;;6195234;23;20016;-89
2020/12/24 06:29:03;;;;;;;;;;;24.10;88.70;;;;;;6185464;23;19997;-91
2020/12/24 06:31:31;;;;;;;3.17;1.40;;;24.00;88.30;;;;;;6194679;23;19927;-89
2020/12/24 06:33:58;;;;;;;3.08;1.60;;;24.00;87.90;;;;;;6196315;23;19996;-90
2020/12/24 06:36:36;;;;;;;2.80;1.50;;;23.90;88.10;;;;;;6195152;23;20001;-91
2020/12/24 06:39:04;;;;;;;3.35;2.15;;;23.90;88.00;;;;;;6195038;23;20207;-91
2020/12/24 06:41:36;;;;;;;4.35;2.38;;;23.90;88.10;;;;;;6196270;23;19997;-90
2020/12/24 06:44:08;;;;;;;2.53;1.75;;;23.90;88.10;;;;;;6195498;23;20013;-90
2020/12/24 06:46:56;;;;;;;3.28;1.98;;;24.00;88.10;;;;;;6195223;23;20004;-91
2020/12/24 06:49:33;;;;;;;2.95;1.70;;;23.90;88.20;;;;;;6197522;23;19993;-92
2020/12/24 06:52:00;;;;;;;2.13;1.80;;;23.90;88.00;;;;;;6199353;23;20019;-92
2020/12/24 06:54:28;;;;;;;4.95;1.92;;;23.90;88.20;;;;;;6195812;23;20268;-92
2020/12/24 06:57:23;;;;;;;2.28;1.50;;;23.90;88.00;;;;;;6195131;23;20056;-91
2020/12/24 07:00:20;;;;;;;2.95;1.80;;;23.90;88.10;;;;;;6195288;23;20278;-92
2020/12/24 07:02:51;;;;;;;2.90;2.00;;;24.00;88.50;;;;;;6196344;23;20096;-91
2020/12/24 07:05:46;;;;;;;2.75;2.25;;;24.00;87.90;;;;;;6194896;23;20205;-91
2020/12/24 07:08:32;;;;;;;3.20;2.08;;;23.90;88.00;;;;;;6194068;23;19993;-92
2020/12/24 07:11:01;;;;;;;3.97;1.95;;;23.90;88.10;;;;;;6194746;23;20024;-91
2020/12/24 07:13:38;;;;;;;2.42;1.75;;;23.90;88.30;;;;;;6193768;23;19993;-91
2020/12/24 07:16:06;;;;;;;2.70;1.90;;;23.90;88.20;;;;;;6196566;23;20052;-91
2020/12/24 07:18:36;;;;;;;3.33;1.60;;;23.80;88.40;;;;;;6194534;23;20351;-90
2020/12/24 07:21:10;;;;;;;2.15;1.52;;;23.80;88.90;;;;;;6195043;23;20012;-90
2020/12/24 07:23:39;;;;;;;2.90;1.50;;;23.70;89.00;;;;;;6195878;23;19999;-90
2020/12/24 07:26:08;;;;;;;3.08;1.75;;;23.70;89.10;;;;;;6194822;23;20007;-90
2020/12/24 07:28:37;;;;;;;3.38;1.73;;;23.60;89.40;;;;;;6194390;23;20003;-90
2020/12/24 07:31:05;;;;;;;3.50;1.50;;;23.70;90.20;;;;;;6194671;23;20028;-90
2020/12/24 07:33:33;;;;;;;4.97;2.33;;;23.70;90.20;;;;;;6194347;23;20316;-90
2020/12/24 07:36:00;;;;;;;5.75;3.75;;;23.70;90.10;;;;;;6193818;23;20001;-90
2020/12/24 07:38:31;;;;;;;6.78;4.55;;;23.70;89.90;;;;;;6193515;23;20057;-91
2020/12/24 07:40:58;;;;;;;10.60;5.13;;;23.70;90.20;;;;;;6196279;23;20047;-91
2020/12/24 07:43:27;;;;;;;6.95;4.30;;;23.70;90.20;;;;;;6194730;23;20035;-92
2020/12/24 07:45:54;;;;;;;5.15;3.30;;;23.70;90.10;;;;;;6195637;23;20005;-92
2020/12/24 07:48:23;;;;;;;5.68;3.28;;;23.70;90.00;;;;;;6193502;23;20301;-91
2020/12/24 07:50:51;;;;;;;4.45;2.47;;;23.70;90.20;;;;;;6193572;23;20072;-91
2020/12/24 07:53:20;;;;;;;3.75;2.20;;;23.60;89.90;;;;;;6193430;23;20000;-91
2020/12/24 07:55:47;;;;;;;3.45;2.03;;;23.60;89.80;;;;;;6196626;23;20004;-91
2020/12/24 07:58:16;;;;;;;3.00;1.98;;;23.60;90.00;;;;;;6194423;23;19997;-91
2020/12/24 08:00:52;;;;;;;3.38;2.58;;;23.60;90.00;;;;;;6195325;23;20001;-91
2020/12/24 08:03:19;;;;;;;4.05;2.38;;;23.50;90.00;;;;;;6194757;23;20058;-90
2020/12/24 08:05:47;;;;;;;6.28;2.60;;;23.50;89.80;;;;;;6196218;23;20016;-92
2020/12/24 08:08:22;;;;;;;2.97;2.25;;;23.60;90.20;;;;;;6194308;23;19993;-91
2020/12/24 08:10:49;;;;;;;4.25;2.08;;;23.50;89.90;;;;;;6194329;23;20028;-91
2020/12/24 08:13:15;;;;;;;3.08;1.75;;;23.50;90.00;;;;;;6194191;23;20032;-92
2020/12/24 08:15:46;;;;;;;3.92;2.10;;;23.50;90.00;;;;;;6194552;23;20001;-90
2020/12/24 08:18:14;;;;;;;4.00;2.45;;;23.50;89.80;;;;;;6195148;23;19996;-91
2020/12/24 08:20:47;;;;;;;2.78;1.58;;;23.40;90.00;;;;;;6225201;23;20028;-91
2020/12/24 08:23:28;;;;;;;3.42;2.10;;;23.40;89.80;;;;;;6199299;23;19993;-91
2020/12/24 08:25:56;;;;;;;1.98;1.48;;;23.40;89.80;;;;;;6199397;23;20011;-90
2020/12/24 08:28:26;;;;;;;3.13;1.90;;;23.40;89.80;;;;;;6199296;23;20188;-90
2020/12/24 08:30:54;;;;;;;3.33;1.70;;;23.40;90.10;;;;;;6225862;23;20064;-91
2020/12/24 08:33:23;;;;;;;2.97;2.00;;;23.40;90.20;;;;;;6199984;23;20252;-92
2020/12/24 08:35:50;;;;;;;4.57;2.08;;;23.40;90.00;;;;;;6199670;23;20000;-89
2020/12/24 08:38:19;;;;;;;3.22;2.13;;;23.40;90.10;;;;;;6223744;23;20055;-90
2020/12/24 08:40:46;;;;;;;3.03;2.08;;;23.40;89.50;;;;;;6198279;23;20004;-90
2020/12/24 08:43:15;;;;;;;4.65;2.30;;;23.40;90.00;;;;;;6199312;23;20000;-90
2020/12/24 08:45:52;;;;;;;4.55;1.90;;;23.30;90.10;;;;;;6198906;23;20076;-92
2020/12/24 08:48:36;;;;;;;4.13;2.22;;;23.40;90.10;;;;;;6199902;23;20285;-93
2020/12/24 08:51:32;;;;;;;6.00;2.25;;;23.30;90.20;;;;;;6199488;23;20031;-91
2020/12/24 08:54:08;;;;;;;3.40;1.95;;;23.30;90.30;;;;;;6179588;23;19997;-90
2020/12/24 08:56:37;;;;;;;3.50;2.10;;;23.30;90.00;;;;;;6197978;23;20007;-89
2020/12/24 08:59:13;;;;;;;3.78;1.88;;;23.30;90.40;;;;;;6199176;23;20216;-90
2020/12/24 09:01:42;;;;;;;3.40;1.90;;;23.40;90.20;;;;;;6199048;23;20191;-90
2020/12/24 09:04:17;;;;;;;2.45;1.70;;;23.40;90.30;;;;;;6224764;23;19993;-91
2020/12/24 09:06:46;;;;;;;4.43;2.25;;;23.40;90.20;;;;;;6226502;23;20050;-92
2020/12/24 09:09:24;;;;;;;3.97;1.63;;;23.40;90.30;;;;;;6201517;23;19999;-92
2020/12/24 09:11:52;;;;;;;2.00;1.50;;;23.30;90.60;;;;;;6208644;23;20009;-93
2020/12/24 09:14:21;;;;;;;3.05;1.30;;;23.30;90.80;;;;;;6204359;23;20011;-92
2020/12/24 09:17:14;;;;;;;3.58;1.50;;;23.20;90.90;;;;;;6227686;23;20042;-92
2020/12/24 09:19:41;;;;;;;1.63;1.50;;;23.30;90.80;;;;;;6196396;23;20013;-92
2020/12/24 09:22:12;;;;;;;2.22;1.25;;;23.20;90.80;;;;;;6200113;23;20192;-90
2020/12/24 09:24:49;;;;;;;3.80;1.90;;;23.20;90.90;;;;;;6227324;23;19999;-93
2020/12/24 09:27:15;;;;;;;4.80;2.10;;;23.30;90.90;;;;;;6201072;23;20005;-90
2020/12/24 09:29:42;;;;;;;3.15;1.80;;;23.20;90.90;;;;;;6227156;23;19992;-89
2020/12/24 09:32:08;;;;;;;5.07;2.00;;;23.30;90.80;;;;;;6227400;23;20004;-91
2020/12/24 09:34:35;;;;;;;2.13;1.50;;;23.30;90.70;;;;;;6227223;23;19985;-90
2020/12/24 09:37:01;;;;;;;2.47;1.60;;;23.30;90.70;;;;;;6226229;23;20023;-90
2020/12/24 09:39:28;;;;;;;1.75;1.42;;;23.30;90.60;;;;;;6227351;23;20026;-90
2020/12/24 09:41:55;;;;;;;2.70;1.30;;;23.30;90.70;;;;;;6199506;23;20251;-90
2020/12/24 09:44:21;;;;;;;1.20;1.10;;;23.40;90.80;;;;;;6226903;23;20047;-87
2020/12/24 09:46:49;;;;;;;1.85;1.30;;;23.30;90.90;;;;;;6227133;23;20058;-89
2020/12/24 09:49:17;;;;;;;4.40;1.50;;;23.30;90.70;;;;;;6199229;23;20003;-90
2020/12/24 09:51:44;;;;;;;2.95;1.52;;;23.30;90.80;;;;;;6200410;23;20011;-90
2020/12/24 09:54:12;;;;;;;2.33;1.70;;;23.30;90.90;;;;;;6201201;23;19993;-91
2020/12/24 09:56:39;;;;;;;2.83;1.42;;;23.30;90.90;;;;;;6199559;23;20000;-91
2020/12/24 09:59:06;;;;;;;2.75;1.75;;;23.30;91.00;;;;;;6200196;23;19988;-91
2020/12/24 10:01:35;;;;;;;1.67;1.55;;;23.30;91.00;;;;;;6199457;23;20032;-91
2020/12/24 10:04:01;;;;;;;3.22;1.70;;;23.30;90.80;;;;;;6199353;23;20224;-91
2020/12/24 10:06:29;;;;;;;2.53;1.60;;;23.30;90.50;;;;;;6199249;23;20024;-90
2020/12/24 10:08:56;;;;;;;4.35;1.60;;;23.20;90.80;;;;;;6226739;23;19999;-90
2020/12/24 10:11:23;;;;;;;1.83;1.38;;;23.20;90.40;;;;;;6200092;23;20052;-90
2020/12/24 10:13:49;;;;;;;3.53;1.67;;;23.20;90.50;;;;;;6200129;23;19992;-89
2020/12/24 10:16:16;;;;;;;2.42;1.42;;;23.20;90.30;;;;;;6226448;23;19995;-88
2020/12/24 10:18:43;;;;;;;2.00;1.30;;;23.10;90.30;;;;;;6194850;23;20021;-90
2020/12/24 10:21:10;;;;;;;2.75;2.08;;;23.10;90.20;;;;;;6195191;23;20004;-91
2020/12/24 10:23:38;;;;;;;4.07;2.05;;;23.10;90.00;;;;;;6194204;23;20004;-91
2020/12/24 10:26:04;;;;;;;3.60;2.70;;;23.20;90.00;;;;;;6194989;23;19996;-91
2020/12/24 10:28:31;;;;;;;2.70;2.00;;;23.20;89.70;;;;;;6197248;23;20008;-90
2020/12/24 10:30:58;;;;;;;1.50;1.35;;;23.30;89.50;;;;;;6194086;23;19993;-91
2020/12/24 10:33:24;;;;;;;2.65;1.40;;;23.30;88.90;;;;;;6194367;23;20017;-90
2020/12/24 10:35:51;;;;;;;4.95;1.88;;;23.30;88.70;;;;;;6195222;23;19993;-92
2020/12/24 10:38:19;;;;;;;2.30;1.70;;;23.40;88.10;;;;;;6195984;23;20001;-93
2020/12/24 10:40:46;;;;;;;2.85;1.88;;;23.40;87.80;;;;;;6195994;23;20189;-94
2020/12/24 10:43:16;;;;;;;1.67;1.45;;;23.40;88.60;;;;;;6196054;23;20001;-90
2020/12/24 10:45:47;;;;;;;3.83;1.63;;;23.50;88.60;;;;;;6196745;23;20495;-91
2020/12/24 10:48:17;;;;;;;1.90;1.35;;;23.50;87.40;;;;;;6196274;23;20012;-92
2020/12/24 10:51:07;;;;;;;2.72;1.55;;;23.50;87.40;;;;;;6200914;23;19997;-90
2020/12/24 10:53:33;;;;;;;2.67;1.50;;;23.50;87.20;;;;;;6164601;23;19997;-92
2020/12/24 10:56:10;;;;;;;14.02;4.10;;;23.50;87.60;;;;;;6139546;23;20001;-91
2020/12/24 10:58:37;;;;;;;2.60;1.50;;;23.60;87.60;;;;;;6163981;23;19993;-92
2020/12/24 11:01:03;;;;;;;3.55;1.45;;;23.60;86.90;;;;;;6164251;23;20226;-90
2020/12/24 11:03:31;;;;;;;2.90;2.08;;;23.60;87.10;;;;;;6164019;23;19994;-90
2020/12/24 11:05:57;;;;;;;1.70;1.40;;;23.50;87.00;;;;;;6139553;23;20005;-91
2020/12/24 11:08:24;;;;;;;2.58;1.65;;;23.60;87.30;;;;;;6140391;23;20003;-91
2020/12/24 11:10:53;;;;;;;3.45;1.60;;;23.50;87.20;;;;;;6163641;23;20005;-92
2020/12/24 11:13:27;;;;;;;2.35;1.35;;;23.50;87.40;;;;;;6164941;23;19993;-91
2020/12/24 11:15:55;;;;;;;6.18;1.33;;;23.50;87.10;;;;;;6163465;23;20070;-89
2020/12/24 11:18:22;;;;;;;3.03;1.42;;;23.50;87.90;;;;;;6161343;23;20051;-93
2020/12/24 11:20:48;;;;;;;5.30;1.48;;;23.50;87.90;;;;;;6110304;23;20012;-88
2020/12/24 11:23:19;;;;;;;2.70;1.70;;;23.50;88.30;;;;;;6109514;23;20013;-89
2020/12/24 11:25:47;;;;;;;2.92;1.40;;;23.60;88.80;;;;;;6169047;23;20009;-88
2020/12/24 11:28:14;;;;;;;2.88;1.25;;;23.50;88.70;;;;;;6194561;23;20056;-89
2020/12/24 11:30:41;;;;;;;3.95;1.67;;;23.50;89.30;;;;;;6196127;23;20192;-88
2020/12/24 11:33:07;;;;;;;4.22;1.65;;;23.50;89.60;;;;;;6169971;23;19996;-88
2020/12/24 11:35:36;;;;;;;3.53;1.70;;;23.60;89.40;;;;;;6169668;23;20185;-90
2020/12/24 11:38:09;;;;;;;3.17;2.00;;;23.50;89.40;;;;;;6169153;23;19989;-89
2020/12/24 11:40:38;;;;;;;;;;;23.50;89.40;;;;;;6169023;23;20121;-89
2020/12/24 11:43:14;;;;;;;4.03;1.95;;;23.60;89.80;;;;;;6169587;23;20161;-90
2020/12/24 11:45:41;;;;;;;5.55;3.50;;;23.60;89.90;;;;;;6165816;23;20016;-91
2020/12/24 11:48:08;;;;;;;4.43;3.22;;;23.60;89.80;;;;;;6169697;23;20031;-90
2020/12/24 11:50:41;;;;;;;3.88;2.30;;;23.60;90.00;;;;;;6144661;23;20001;-88
2020/12/24 11:53:07;;;;;;;2.45;1.67;;;23.70;90.20;;;;;;6194535;23;20253;-88
2020/12/24 11:55:34;;;;;;;1.48;1.38;;;23.70;89.80;;;;;;6195659;23;20004;-93
2020/12/24 11:58:01;;;;;;;3.65;1.65;;;23.80;89.80;;;;;;6196082;23;20013;-92
2020/12/24 12:00:28;;;;;;;2.63;1.52;;;23.90;89.40;;;;;;6169292;23;20418;-90
2020/12/24 12:02:54;;;;;;;3.03;1.58;;;24.00;88.80;;;;;;6195923;23;20005;-90
2020/12/24 12:05:21;;;;;;;3.88;2.22;;;24.10;87.80;;;;;;6195819;23;20002;-91
2020/12/24 12:07:49;;;;;;;2.95;1.90;;;24.20;88.90;;;;;;6169238;23;20001;-91
2020/12/24 12:10:15;;;;;;;9.05;2.17;;;24.30;88.60;;;;;;6169347;23;19997;-90
2020/12/24 12:12:42;;;;;;;4.10;2.35;;;24.30;87.90;;;;;;6169589;23;19997;-92
2020/12/24 12:15:09;;;;;;;4.82;2.70;;;24.30;89.70;;;;;;6169132;23;20000;-91
2020/12/24 12:17:35;;;;;;;6.45;2.60;;;24.50;88.50;;;;;;6169344;23;20004;-90
2020/12/24 12:20:02;;;;;;;7.88;2.40;;;24.50;88.10;;;;;;6220022;23;20032;-90
2020/12/24 12:22:29;;;;;;;5.43;2.70;;;24.60;87.50;;;;;;6199211;23;20242;-89
2020/12/24 12:25:02;;;;;;;5.93;2.72;;;24.80;85.50;;;;;;6199288;23;20020;-88
2020/12/24 12:27:30;;;;;;;15.98;3.00;;;24.80;85.10;;;;;;6197331;23;20062;-89
2020/12/24 12:29:57;;;;;;;7.55;2.42;;;24.80;84.40;;;;;;6225563;23;20000;-89
2020/12/24 12:32:24;;;;;;;11.45;2.33;;;24.80;84.00;;;;;;6225408;23;19992;-89
2020/12/24 12:34:53;;;;;;;4.97;1.85;;;24.80;83.60;;;;;;6199165;23;20039;-88
2020/12/24 12:37:20;;;;;;;13.00;3.53;;;24.80;84.40;;;;;;6225710;23;19993;-90
2020/12/24 12:39:46;;;;;;;14.90;3.42;;;24.70;85.70;;;;;;6199511;23;19993;-89
2020/12/24 12:42:13;;;;;;;8.57;2.90;;;24.80;86.30;;;;;;6227036;23;19993;-88
2020/12/24 12:44:40;;;;;;;8.60;2.63;;;24.80;87.80;;;;;;6201076;23;20326;-88
2020/12/24 12:47:06;;;;;;;14.95;2.92;;;24.70;89.20;;;;;;6200870;23;20162;-90
2020/12/24 12:49:34;;;;;;;11.35;3.42;;;24.50;90.40;;;;;;6200839;23;20355;-89
2020/12/24 12:52:06;;;;;;;5.30;2.92;;;24.60;90.90;;;;;;6199869;23;20000;-91
2020/12/24 12:54:34;;;;;;;6.85;3.50;;;24.60;91.30;;;;;;6201301;23;20027;-92
2020/12/24 12:57:00;;;;;;;6.90;3.90;;;24.70;91.60;;;;;;6225144;23;20000;-94
2020/12/24 12:59:27;;;;;;;6.50;3.70;;;24.70;91.70;;;;;;6200328;23;20008;-90
2020/12/24 13:01:54;;;;;;;6.82;3.78;;;24.70;91.80;;;;;;6227336;23;20000;-91